Terminal Aerodrome Forecast
Issued by NWS

Home | Current Version | Previous Version | Text Only | Print | Product List | Glossary On
Versions: 1 2 3 4 5 6 7 8 9 10 11 12 13 14 15 16 17 18 19 20 21 22 23 24
000
FTUS46 KMFR 031747
TAFOTH
TAF
KOTH 031747Z 0318/0418 30005KT P6SM OVC010
     FM031900 34008KT P6SM BKN012 BKN090
     FM032000 35012G20KT P6SM SCT015 BKN090
     FM040300 36008KT P6SM OVC015
     FM040600 VRB03KT P6SM OVC008=

USA.gov is the U.S. government's official web portal to all federal, state and local government web resources and services.